Time;durP1;ratioP1;P1;durP2;ratioP2;P2;SDS_P1;SDS_P2;PMS_P1;PMS_P2;Temp;Humidity;BMP_temperature;BMP_pressure;BME280_temperature;BME280_humidity;BME280_pressure;Samples;Min_cycle;Max_cycle;Signal;HPM_P1;HPM_P2
2022/09/30 00:01:24;;;;;;;15.73;12.52;;;7.90;99.90;;;;;;5058447;28;20045;-61
2022/09/30 00:03:53;;;;;;;21.85;14.57;;;7.90;99.90;;;;;;5068025;28;20476;-61
2022/09/30 00:06:20;;;;;;;16.27;13.57;;;7.80;99.90;;;;;;5055353;28;20101;-61
2022/09/30 00:08:47;;;;;;;15.52;12.85;;;7.80;99.90;;;;;;5061177;28;20045;-61
2022/09/30 00:11:19;;;;;;;15.75;12.82;;;7.80;99.90;;;;;;5061091;28;20036;-61
2022/09/30 00:13:47;;;;;;;18.67;13.98;;;7.80;99.90;;;;;;5052869;28;20041;-61
2022/09/30 00:16:14;;;;;;;15.10;12.95;;;7.70;99.90;;;;;;5041775;28;20044;-61
2022/09/30 00:18:42;;;;;;;16.63;13.02;;;7.70;99.90;;;;;;5048624;28;20045;-61
2022/09/30 00:21:09;;;;;;;16.25;12.60;;;7.70;99.90;;;;;;5067529;28;20040;-61
2022/09/30 00:23:37;;;;;;;16.48;13.00;;;7.70;99.90;;;;;;5068345;28;20040;-61
2022/09/30 00:26:06;;;;;;;16.38;12.00;;;7.70;99.90;;;;;;5063749;28;20037;-60
2022/09/30 00:28:33;;;;;;;16.65;12.00;;;7.60;99.90;;;;;;5053697;28;20378;-61
2022/09/30 00:31:01;;;;;;;16.70;11.27;;;7.60;99.90;;;;;;5061050;28;20041;-63
2022/09/30 00:33:28;;;;;;;16.75;10.95;;;7.60;99.90;;;;;;5066130;28;20048;-61
2022/09/30 00:35:55;;;;;;;15.48;13.15;;;7.50;99.90;;;;;;5051843;28;20476;-61
2022/09/30 00:38:22;;;;;;;14.57;11.48;;;7.50;99.90;;;;;;5052103;28;20435;-61
2022/09/30 00:40:50;;;;;;;15.73;11.00;;;7.50;99.90;;;;;;5051358;28;20469;-61
2022/09/30 00:43:19;;;;;;;12.63;10.73;;;7.50;99.90;;;;;;5053776;28;20041;-61
2022/09/30 00:45:54;;;;;;;15.98;12.15;;;7.50;99.90;;;;;;5052166;28;20095;-61
2022/09/30 00:48:31;;;;;;;13.20;10.55;;;7.50;99.90;;;;;;5058936;28;20048;-62
2022/09/30 00:50:58;;;;;;;13.48;9.80;;;7.50;99.90;;;;;;5051824;28;20049;-61
2022/09/30 00:53:29;;;;;;;14.45;10.45;;;7.40;99.90;;;;;;5065694;28;20163;-61
2022/09/30 00:56:04;;;;;;;14.32;10.35;;;7.40;99.90;;;;;;5069817;28;20044;-61
2022/09/30 00:58:35;;;;;;;15.65;11.63;;;7.40;99.90;;;;;;5048653;28;20527;-61
2022/09/30 01:01:02;;;;;;;12.55;10.13;;;7.40;99.90;;;;;;5041769;28;20412;-60
2022/09/30 01:03:31;;;;;;;12.50;10.05;;;7.40;99.90;;;;;;5051825;28;20082;-60
2022/09/30 01:05:58;;;;;;;15.10;11.40;;;7.30;99.90;;;;;;5050720;28;20477;-60
2022/09/30 01:08:24;;;;;;;12.48;10.25;;;7.30;99.90;;;;;;5052080;28;20041;-60
2022/09/30 01:10:51;;;;;;;11.75;10.00;;;7.30;99.90;;;;;;5050841;28;20110;-61
2022/09/30 01:13:19;;;;;;;12.30;10.82;;;7.30;99.90;;;;;;5031250;28;20311;-60
2022/09/30 01:16:05;;;;;;;11.90;9.23;;;7.30;99.90;;;;;;5051173;28;20118;-61
2022/09/30 01:19:04;;;;;;;10.82;9.73;;;7.30;99.90;;;;;;5051101;28;20045;-61
2022/09/30 01:21:52;;;;;;;12.88;9.85;;;7.20;99.90;;;;;;5043511;28;20110;-60
2022/09/30 01:24:38;;;;;;;10.80;9.25;;;7.20;99.90;;;;;;5066519;28;20079;-61
2022/09/30 01:27:20;;;;;;;12.18;10.05;;;7.20;99.90;;;;;;5047039;28;20545;-60
2022/09/30 01:30:16;;;;;;;11.75;10.18;;;7.20;99.90;;;;;;5065658;28;20079;-61
2022/09/30 01:33:07;;;;;;;13.77;11.52;;;7.30;99.90;;;;;;5042540;28;20479;-61
2022/09/30 01:35:56;;;;;;;14.15;10.43;;;7.40;99.90;;;;;;5047983;28;20045;-61
2022/09/30 01:38:28;;;;;;;11.30;9.43;;;7.40;99.90;;;;;;5039584;28;20041;-61
2022/09/30 01:41:10;;;;;;;13.35;9.07;;;7.50;99.90;;;;;;5052866;28;20084;-62
2022/09/30 01:43:44;;;;;;;11.98;10.00;;;7.60;99.90;;;;;;5051497;28;20081;-61
2022/09/30 01:46:32;;;;;;;13.23;10.13;;;7.60;99.90;;;;;;5053460;28;20037;-61
2022/09/30 01:49:24;;;;;;;10.63;9.52;;;7.70;99.90;;;;;;5064058;28;20268;-63
2022/09/30 01:51:57;;;;;;;10.77;9.07;;;7.80;99.90;;;;;;5037298;28;20047;-60
2022/09/30 01:54:48;;;;;;;13.00;10.48;;;7.90;99.90;;;;;;5050080;28;20079;-61
2022/09/30 01:57:16;;;;;;;13.35;9.23;;;7.90;99.90;;;;;;5066537;28;20045;-60
2022/09/30 01:59:54;;;;;;;12.82;10.23;;;8.00;99.90;;;;;;5052755;28;20102;-61
2022/09/30 02:02:26;;;;;;;12.63;9.13;;;8.10;99.90;;;;;;5030016;28;20041;-60
2022/09/30 02:05:06;;;;;;;12.48;9.50;;;8.10;99.90;;;;;;5044909;28;20041;-61
2022/09/30 02:07:54;;;;;;;11.45;10.00;;;8.10;99.90;;;;;;5064818;28;20114;-61
2022/09/30 02:10:26;;;;;;;10.97;9.53;;;8.10;99.90;;;;;;5051543;28;20040;-61
2022/09/30 02:13:08;;;;;;;11.98;9.50;;;8.00;99.90;;;;;;5032651;28;20476;-61
2022/09/30 02:15:38;;;;;;;12.65;9.10;;;8.00;99.90;;;;;;5049142;28;20115;-60
2022/09/30 02:18:18;;;;;;;12.40;10.10;;;8.00;99.90;;;;;;5051749;28;20094;-60
2022/09/30 02:20:48;;;;;;;12.15;8.90;;;7.90;99.90;;;;;;5051027;28;20098;-61
2022/09/30 02:23:20;;;;;;;11.00;9.73;;;7.90;99.90;;;;;;5051319;28;20076;-60
2022/09/30 02:25:49;;;;;;;10.55;9.00;;;7.80;99.90;;;;;;5055507;28;20041;-60
2022/09/30 02:28:22;;;;;;;11.02;9.02;;;7.70;99.90;;;;;;5053717;28;20534;-60
2022/09/30 02:30:49;;;;;;;10.77;9.10;;;7.70;99.90;;;;;;5057386;28;20071;-61
2022/09/30 02:33:30;;;;;;;12.27;9.73;;;7.60;99.90;;;;;;5063571;28;20443;-61
2022/09/30 02:36:02;;;;;;;11.25;9.60;;;7.60;99.90;;;;;;5042967;28;20053;-61
2022/09/30 02:38:33;;;;;;;11.70;9.57;;;7.50;99.90;;;;;;5053917;28;20052;-61
2022/09/30 02:41:09;;;;;;;15.68;10.50;;;7.50;99.90;;;;;;5071207;28;20102;-61
2022/09/30 02:43:37;;;;;;;11.55;9.93;;;7.40;99.90;;;;;;5055984;28;20048;-61
2022/09/30 02:46:10;;;;;;;11.60;9.60;;;7.40;99.90;;;;;;5053487;28;20072;-61
2022/09/30 02:48:44;;;;;;;14.50;10.35;;;7.40;99.90;;;;;;5054349;28;20480;-61
2022/09/30 02:51:21;;;;;;;10.57;9.07;;;7.30;99.90;;;;;;5059671;28;20098;-63
2022/09/30 02:54:19;;;;;;;10.32;8.90;;;7.30;99.90;;;;;;5043440;28;20439;-61
2022/09/30 02:56:54;;;;;;;13.13;9.82;;;7.40;99.90;;;;;;5054332;28;20040;-62
2022/09/30 02:59:22;;;;;;;11.88;8.48;;;7.40;99.90;;;;;;5034046;28;20045;-60
2022/09/30 03:01:49;;;;;;;12.73;9.23;;;7.50;99.90;;;;;;5022173;28;20136;-60
2022/09/30 03:04:21;;;;;;;10.27;9.20;;;7.60;99.90;;;;;;5054013;28;20067;-61
2022/09/30 03:06:48;;;;;;;11.25;9.63;;;7.60;99.90;;;;;;5071349;28;20040;-61
2022/09/30 03:09:15;;;;;;;13.00;9.52;;;7.70;99.90;;;;;;5072204;28;20098;-61
2022/09/30 03:11:42;;;;;;;11.55;8.60;;;7.90;99.90;;;;;;5073020;28;20123;-60
2022/09/30 03:14:24;;;;;;;12.52;9.93;;;8.00;99.90;;;;;;5057566;28;20075;-61
2022/09/30 03:17:31;;;;;;;11.40;9.77;;;8.10;99.90;;;;;;5066445;28;20102;-62
2022/09/30 03:20:20;;;;;;;11.02;9.70;;;8.20;99.90;;;;;;5047954;28;20365;-61
2022/09/30 03:23:04;;;;;;;10.68;8.75;;;8.30;99.90;;;;;;5055195;28;20033;-61
2022/09/30 03:25:55;;;;;;;9.40;8.25;;;8.40;99.90;;;;;;5064947;28;20142;-62
2022/09/30 03:29:30;;;;;;;12.18;9.45;;;8.50;99.90;;;;;;5056425;28;20037;-61
2022/09/30 03:32:21;;;;;;;11.35;7.82;;;8.60;99.90;;;;;;4990860;28;20494;-60
2022/09/30 03:35:09;;;;;;;9.15;7.97;;;8.60;99.90;;;;;;4977210;28;20462;-61
2022/09/30 03:37:55;;;;;;;15.10;8.80;;;8.70;99.90;;;;;;5041672;28;20068;-61
2022/09/30 03:40:49;;;;;;;9.13;7.90;;;8.80;99.90;;;;;;5052833;28;20095;-61
2022/09/30 03:43:42;;;;;;;9.65;8.05;;;8.80;99.90;;;;;;5045876;28;20049;-61
2022/09/30 03:46:37;;;;;;;9.77;8.57;;;8.90;99.90;;;;;;5044052;28;20041;-61
2022/09/30 03:49:06;;;;;;;13.10;9.48;;;8.90;99.90;;;;;;5053474;28;20088;-61
2022/09/30 03:51:37;;;;;;;9.93;8.93;;;8.90;99.90;;;;;;5053167;28;20408;-61
2022/09/30 03:54:09;;;;;;;8.13;7.28;;;9.00;99.90;;;;;;5054034;28;20365;-61
2022/09/30 03:56:36;;;;;;;9.25;8.35;;;9.10;99.90;;;;;;5060148;28;20500;-61
2022/09/30 03:59:03;;;;;;;10.32;9.00;;;9.10;99.90;;;;;;5053661;28;20043;-61
2022/09/30 04:01:30;;;;;;;10.27;8.68;;;9.10;99.90;;;;;;5052645;28;20036;-61
2022/09/30 04:03:57;;;;;;;12.35;8.75;;;9.20;99.90;;;;;;5051687;28;20037;-61
2022/09/30 04:06:24;;;;;;;10.70;8.52;;;9.20;99.90;;;;;;5052429;28;20075;-62
2022/09/30 04:08:52;;;;;;;10.23;8.27;;;9.30;99.90;;;;;;5052020;28;20087;-62
2022/09/30 04:11:19;;;;;;;12.63;8.45;;;9.30;99.90;;;;;;5048252;28;20064;-61
2022/09/30 04:13:46;;;;;;;10.75;9.13;;;9.40;99.90;;;;;;5054480;28;20094;-61
2022/09/30 04:16:13;;;;;;;11.07;9.18;;;9.40;99.90;;;;;;5059359;28;20436;-61
2022/09/30 04:18:41;;;;;;;10.70;9.15;;;9.40;99.90;;;;;;5056237;28;20040;-61
2022/09/30 04:21:08;;;;;;;10.55;8.95;;;9.40;99.90;;;;;;5060636;28;20550;-61
2022/09/30 04:23:36;;;;;;;11.40;9.55;;;9.50;99.90;;;;;;5052986;28;20080;-61
2022/09/30 04:26:04;;;;;;;14.48;10.25;;;9.50;99.90;;;;;;5051952;28;20032;-61
2022/09/30 04:28:31;;;;;;;10.35;9.02;;;9.50;99.90;;;;;;5057461;28;20042;-60
2022/09/30 04:30:59;;;;;;;11.77;9.05;;;9.50;99.90;;;;;;5069823;28;20094;-61
2022/09/30 04:33:27;;;;;;;11.02;8.88;;;9.60;99.90;;;;;;5055818;28;20119;-61
2022/09/30 04:35:54;;;;;;;12.88;9.55;;;9.60;99.90;;;;;;5068666;28;20094;-62
2022/09/30 04:38:23;;;;;;;11.68;9.65;;;9.60;99.90;;;;;;5069854;28;20037;-61
2022/09/30 04:40:50;;;;;;;12.80;9.10;;;9.70;99.90;;;;;;5061877;28;20045;-61
2022/09/30 04:43:18;;;;;;;11.43;9.68;;;9.70;99.90;;;;;;5056491;28;20478;-61
2022/09/30 04:45:45;;;;;;;11.45;9.00;;;9.70;99.90;;;;;;5057768;28;20106;-61
2022/09/30 04:48:12;;;;;;;12.45;10.98;;;9.80;99.90;;;;;;5054846;28;20052;-61
2022/09/30 04:50:39;;;;;;;12.90;10.27;;;9.80;99.90;;;;;;5051831;28;20103;-60
2022/09/30 04:53:07;;;;;;;14.45;10.40;;;9.90;99.90;;;;;;5052129;28;20041;-61
2022/09/30 04:55:34;;;;;;;18.17;12.88;;;9.90;99.90;;;;;;5064174;28;20049;-61
2022/09/30 04:58:01;;;;;;;22.80;11.38;;;9.90;99.90;;;;;;5052552;28;20087;-60
2022/09/30 05:00:28;;;;;;;17.27;10.77;;;9.90;99.90;;;;;;5052530;28;20365;-61
2022/09/30 05:02:55;;;;;;;19.02;11.65;;;10.00;99.90;;;;;;5065367;28;20076;-61
2022/09/30 05:05:22;;;;;;;18.35;13.20;;;10.00;99.90;;;;;;5068652;28;20040;-63
2022/09/30 05:07:49;;;;;;;15.93;11.10;;;10.00;99.90;;;;;;5069260;28;20052;-61
2022/09/30 05:10:16;;;;;;;19.48;12.40;;;10.10;99.90;;;;;;5055794;28;20044;-61
2022/09/30 05:12:44;;;;;;;21.45;12.80;;;10.10;99.90;;;;;;5064143;28;20079;-61
2022/09/30 05:15:11;;;;;;;35.63;24.35;;;10.10;99.90;;;;;;5051512;28;20496;-62
2022/09/30 05:17:37;;;;;;;51.65;38.50;;;10.10;99.90;;;;;;5051001;28;20107;-63
2022/09/30 05:20:09;;;;;;;42.78;28.80;;;10.20;99.90;;;;;;5067158;28;20037;-65
2022/09/30 05:22:37;;;;;;;26.00;17.70;;;10.20;99.90;;;;;;5070254;28;20036;-63
2022/09/30 05:25:04;;;;;;;19.13;13.95;;;10.20;99.90;;;;;;5054506;28;20048;-63
2022/09/30 05:27:31;;;;;;;21.10;13.23;;;10.20;99.90;;;;;;5049854;28;20044;-63
2022/09/30 05:29:58;;;;;;;17.85;12.70;;;10.20;99.90;;;;;;5053499;28;20040;-63
2022/09/30 05:32:25;;;;;;;21.10;13.55;;;10.30;99.90;;;;;;5067575;28;20102;-63
2022/09/30 05:34:54;;;;;;;17.95;13.82;;;10.30;99.90;;;;;;5068774;28;20138;-63
2022/09/30 05:37:21;;;;;;;25.55;14.02;;;10.30;99.90;;;;;;5060488;28;20044;-63
2022/09/30 05:39:47;;;;;;;26.30;17.75;;;10.30;99.90;;;;;;5059956;28;20396;-63
2022/09/30 05:42:14;;;;;;;38.42;17.40;;;10.30;99.90;;;;;;5053879;28;20090;-63
2022/09/30 05:44:41;;;;;;;59.20;18.80;;;10.30;99.90;;;;;;5052998;28;20045;-63
2022/09/30 05:47:10;;;;;;;36.83;17.63;;;10.30;99.90;;;;;;5059644;28;20090;-63
2022/09/30 05:49:38;;;;;;;38.08;19.50;;;10.20;99.90;;;;;;5071533;28;20051;-63
2022/09/30 05:52:06;;;;;;;39.25;20.63;;;10.30;99.90;;;;;;5060022;28;20064;-63
2022/09/30 05:54:33;;;;;;;35.00;19.25;;;10.30;99.90;;;;;;5041497;28;20040;-63
2022/09/30 05:57:00;;;;;;;35.83;19.40;;;10.20;99.90;;;;;;5056278;28;20132;-63
2022/09/30 05:59:27;;;;;;;30.30;17.75;;;10.30;99.90;;;;;;5064605;28;20056;-63
2022/09/30 06:01:54;;;;;;;37.25;19.50;;;10.30;99.90;;;;;;5053917;28;20072;-63
2022/09/30 06:04:21;;;;;;;34.53;18.83;;;10.30;99.90;;;;;;5057460;28;20037;-63
2022/09/30 06:06:48;;;;;;;34.70;18.77;;;10.30;99.90;;;;;;5058214;28;20086;-63
2022/09/30 06:09:15;;;;;;;31.92;18.85;;;10.40;99.90;;;;;;5042916;28;20126;-63
2022/09/30 06:11:42;;;;;;;28.23;17.48;;;10.30;99.90;;;;;;5057775;28;20123;-63
2022/09/30 06:14:09;;;;;;;35.95;15.82;;;10.40;99.90;;;;;;5064502;28;20149;-63
2022/09/30 06:16:36;;;;;;;32.03;18.38;;;10.40;99.90;;;;;;5056474;28;20041;-63
2022/09/30 06:19:05;;;;;;;34.35;19.55;;;10.40;99.90;;;;;;5042441;28;20544;-63
2022/09/30 06:21:31;;;;;;;48.60;34.90;;;10.40;99.90;;;;;;5069223;28;20110;-63
2022/09/30 06:23:59;;;;;;;180.20;121.00;;;10.40;99.90;;;;;;5056050;28;20057;-63
2022/09/30 06:26:26;;;;;;;35.05;22.95;;;10.50;99.90;;;;;;5055406;28;20365;-63
2022/09/30 06:28:53;;;;;;;33.30;19.70;;;10.50;99.90;;;;;;5065614;28;20415;-64
2022/09/30 06:31:20;;;;;;;26.73;15.93;;;10.50;99.90;;;;;;5062549;28;20055;-64
2022/09/30 06:33:48;;;;;;;103.25;75.95;;;10.50;99.90;;;;;;5064276;28;20139;-64
2022/09/30 06:36:16;;;;;;;213.32;174.27;;;10.60;99.90;;;;;;5053545;28;20041;-64
2022/09/30 06:38:44;;;;;;;42.50;32.53;;;10.60;99.90;;;;;;5053322;28;20079;-63
2022/09/30 06:41:12;;;;;;;30.27;21.10;;;10.60;99.90;;;;;;5057234;28;20040;-63
2022/09/30 06:43:42;;;;;;;24.58;17.83;;;10.70;99.90;;;;;;5057240;28;20059;-63
2022/09/30 06:46:16;;;;;;;30.40;18.17;;;10.70;99.90;;;;;;5042833;28;20460;-62
2022/09/30 06:48:56;;;;;;;63.83;46.20;;;10.80;99.90;;;;;;5034812;28;20096;-62
2022/09/30 06:51:36;;;;;;;24.52;18.02;;;10.80;99.90;;;;;;5043425;28;20094;-63
2022/09/30 06:54:03;;;;;;;28.20;16.40;;;10.80;99.90;;;;;;5037245;28;20102;-62
2022/09/30 06:56:30;;;;;;;28.20;16.85;;;10.80;99.90;;;;;;5063421;28;20041;-62
2022/09/30 06:58:57;;;;;;;24.83;14.32;;;10.80;99.90;;;;;;5053926;28;20048;-62
2022/09/30 07:01:25;;;;;;;33.15;14.57;;;10.80;99.90;;;;;;5053330;28;20098;-62
2022/09/30 07:03:56;;;;;;;23.63;14.20;;;10.80;99.90;;;;;;5054241;28;20041;-64
2022/09/30 07:06:25;;;;;;;17.95;12.35;;;10.80;99.90;;;;;;5054587;28;20064;-65
2022/09/30 07:08:53;;;;;;;18.08;11.98;;;10.80;99.90;;;;;;5054144;28;20043;-65
2022/09/30 07:11:20;;;;;;;19.45;12.30;;;10.80;99.90;;;;;;5054622;28;20103;-63
2022/09/30 07:13:48;;;;;;;38.05;15.07;;;10.80;99.90;;;;;;5056287;28;20644;-64
2022/09/30 07:16:16;;;;;;;29.13;14.93;;;10.80;99.90;;;;;;5048913;28;20037;-66
2022/09/30 07:18:44;;;;;;;23.87;13.50;;;10.90;99.90;;;;;;5042311;28;20315;-63
2022/09/30 07:21:14;;;;;;;23.92;13.10;;;10.90;99.90;;;;;;5052341;28;20045;-63
2022/09/30 07:23:46;;;;;;;20.30;13.90;;;10.90;99.90;;;;;;5049364;28;20092;-63
2022/09/30 07:26:15;;;;;;;25.10;13.65;;;11.00;99.90;;;;;;5045992;28;20044;-62
2022/09/30 07:28:42;;;;;;;19.45;13.20;;;11.00;99.90;;;;;;5055486;28;20423;-64
2022/09/30 07:31:12;;;;;;;22.50;13.48;;;11.10;99.90;;;;;;5058647;28;20510;-63
2022/09/30 07:33:57;;;;;;;28.70;16.10;;;11.10;99.90;;;;;;5058963;28;20064;-64
2022/09/30 07:36:28;;;;;;;21.48;13.32;;;11.20;99.90;;;;;;5055236;28;20476;-63
2022/09/30 07:39:04;;;;;;;20.95;14.63;;;11.20;99.90;;;;;;5054305;28;20048;-62
2022/09/30 07:41:32;;;;;;;20.95;13.70;;;11.10;99.90;;;;;;5055988;28;20065;-61
2022/09/30 07:43:59;;;;;;;22.27;15.43;;;11.20;99.90;;;;;;5051197;28;20437;-61
2022/09/30 07:46:30;;;;;;;21.10;15.35;;;11.10;99.90;;;;;;5054813;28;20087;-63
2022/09/30 07:49:02;;;;;;;80.47;60.63;;;11.10;99.90;;;;;;5061494;28;20040;-62
2022/09/30 07:51:36;;;;;;;33.33;25.08;;;11.10;99.90;;;;;;5039112;28;20171;-62
2022/09/30 07:54:08;;;;;;;25.23;18.42;;;11.10;99.90;;;;;;5044530;28;20053;-61
2022/09/30 07:56:37;;;;;;;22.70;15.43;;;11.10;99.90;;;;;;5032108;28;20465;-61
2022/09/30 07:59:24;;;;;;;19.48;15.48;;;11.10;99.90;;;;;;5033194;28;20049;-62
2022/09/30 08:01:51;;;;;;;23.73;15.45;;;11.10;99.90;;;;;;5051843;28;20040;-62
2022/09/30 08:04:18;;;;;;;26.25;17.02;;;11.20;99.90;;;;;;5051617;28;20047;-62
2022/09/30 08:06:54;;;;;;;20.38;15.98;;;11.20;99.90;;;;;;5050475;28;20110;-63
2022/09/30 08:09:21;;;;;;;25.83;16.73;;;11.30;99.90;;;;;;5051595;28;20041;-62
2022/09/30 08:11:48;;;;;;;22.80;15.80;;;11.40;99.90;;;;;;5051115;28;20057;-66
2022/09/30 08:14:17;;;;;;;20.27;15.43;;;11.50;99.90;;;;;;5056414;28;20044;-62
2022/09/30 08:16:44;;;;;;;18.13;15.10;;;11.70;99.90;;;;;;5052810;28;20036;-62
2022/09/30 08:19:16;;;;;;;20.77;13.85;;;11.80;99.90;;;;;;5052931;28;20124;-63
2022/09/30 08:21:43;;;;;;;19.67;13.82;;;11.90;99.90;;;;;;5051632;28;20095;-62
2022/09/30 08:24:11;;;;;;;22.00;16.05;;;12.10;99.90;;;;;;5047681;28;20431;-61
2022/09/30 08:26:38;;;;;;;20.00;15.48;;;12.20;99.90;;;;;;5050384;28;20052;-62
2022/09/30 08:29:05;;;;;;;17.98;13.48;;;12.30;99.90;;;;;;5033337;28;20104;-62
2022/09/30 08:31:32;;;;;;;14.70;12.85;;;12.50;99.90;;;;;;5050402;28;20056;-62
2022/09/30 08:33:59;;;;;;;15.18;12.32;;;12.60;99.90;;;;;;5033919;28;20052;-62
2022/09/30 08:36:26;;;;;;;14.13;12.60;;;12.70;99.90;;;;;;5056182;28;20485;-61
2022/09/30 08:38:53;;;;;;;15.68;13.60;;;12.80;99.90;;;;;;5045442;28;20186;-62
2022/09/30 08:41:22;;;;;;;15.43;13.50;;;13.00;99.90;;;;;;5040870;28;20052;-62
2022/09/30 08:43:56;;;;;;;15.35;11.15;;;13.20;99.90;;;;;;5054472;28;20094;-64
2022/09/30 08:46:43;;;;;;;11.88;10.48;;;13.30;99.90;;;;;;5051096;28;20056;-65
2022/09/30 08:49:22;;;;;;;10.48;9.20;;;13.50;99.90;;;;;;5050314;28;20041;-66
2022/09/30 08:51:49;;;;;;;11.95;9.30;;;13.70;99.90;;;;;;5051937;28;20045;-65
2022/09/30 08:54:19;;;;;;;30.42;25.92;;;13.90;99.90;;;;;;5058499;28;20095;-65
2022/09/30 08:56:46;;;;;;;18.45;14.02;;;14.10;99.90;;;;;;5052020;28;20053;-65
2022/09/30 08:59:32;;;;;;;12.82;9.45;;;14.30;99.90;;;;;;5057558;28;20432;-64
2022/09/30 09:02:22;;;;;;;14.13;9.95;;;14.50;99.90;;;;;;5066192;28;20071;-63
2022/09/30 09:04:51;;;;;;;12.43;8.75;;;14.60;99.90;;;;;;5057273;28;20107;-63
2022/09/30 09:07:24;;;;;;;9.05;8.10;;;14.70;99.90;;;;;;5052193;28;20044;-64
2022/09/30 09:10:17;;;;;;;12.35;8.32;;;14.70;99.90;;;;;;5049153;28;20049;-62
2022/09/30 09:12:55;;;;;;;12.77;9.60;;;14.80;99.90;;;;;;5052513;28;20036;-63
2022/09/30 09:15:44;;;;;;;14.10;10.88;;;14.80;99.90;;;;;;5038314;28;20041;-63
2022/09/30 09:18:42;;;;;;;35.75;23.13;;;14.90;99.90;;;;;;5032710;28;20036;-68
2022/09/30 09:21:30;;;;;;;14.70;10.77;;;14.90;99.90;;;;;;5050256;28;20125;-65
2022/09/30 09:24:00;;;;;;;10.65;8.90;;;15.00;99.90;;;;;;5063736;28;20078;-65
2022/09/30 09:26:28;;;;;;;12.80;9.77;;;15.00;99.90;;;;;;5063577;28;20165;-65
2022/09/30 09:28:59;;;;;;;10.73;9.63;;;15.10;99.90;;;;;;5057335;28;20045;-65
2022/09/30 09:31:26;;;;;;;10.23;9.13;;;15.10;99.90;;;;;;5048156;28;20052;-65
2022/09/30 09:33:55;;;;;;;10.18;8.98;;;15.00;99.90;;;;;;5049639;28;20465;-66
2022/09/30 09:36:30;;;;;;;13.20;9.60;;;15.10;99.90;;;;;;5048154;28;20056;-65
2022/09/30 09:39:35;;;;;;;11.32;8.43;;;15.10;99.90;;;;;;5031498;28;20056;-65
2022/09/30 09:42:04;;;;;;;10.43;9.15;;;15.20;99.90;;;;;;5051095;28;20045;-65
2022/09/30 09:44:53;;;;;;;11.70;8.23;;;15.30;99.90;;;;;;5053085;28;20044;-65
2022/09/30 09:47:20;;;;;;;10.73;8.40;;;15.40;99.90;;;;;;5034041;28;20053;-66
2022/09/30 09:49:54;;;;;;;11.48;9.10;;;15.40;99.90;;;;;;5051046;28;20041;-65
2022/09/30 09:52:23;;;;;;;10.27;8.57;;;15.50;99.90;;;;;;5059123;28;20124;-65
2022/09/30 09:54:56;;;;;;;9.88;8.23;;;15.50;99.90;;;;;;5052057;28;20542;-65
2022/09/30 09:57:30;;;;;;;10.60;7.75;;;15.50;99.90;;;;;;5034282;28;20106;-65
2022/09/30 10:01:04;;;;;;;9.88;8.13;;;15.50;99.90;;;;;;5058053;28;20074;-66
2022/09/30 10:03:00;;;;;;;11.23;8.23;;;15.50;99.90;;;;;;5060521;28;20036;-66
2022/09/30 10:05:28;;;;;;;14.70;11.02;;;15.50;99.90;;;;;;5041997;28;20911;-67
2022/09/30 10:08:17;;;;;;;10.50;7.53;;;15.60;99.90;;;;;;5048676;28;20059;-65
2022/09/30 10:10:48;;;;;;;9.50;7.00;;;15.70;99.90;;;;;;5036779;28;20041;-67
2022/09/30 10:13:25;;;;;;;9.52;7.32;;;15.70;99.90;;;;;;5040984;28;20343;-65
2022/09/30 10:15:54;;;;;;;8.45;6.55;;;15.80;99.90;;;;;;5040415;28;20048;-67
2022/09/30 10:18:41;;;;;;;8.75;6.68;;;15.90;99.90;;;;;;5044337;28;20132;-68
2022/09/30 10:21:19;;;;;;;9.15;6.78;;;16.00;99.90;;;;;;5072355;28;20124;-67
2022/09/30 10:23:46;;;;;;;9.32;6.78;;;16.10;99.90;;;;;;5057470;28;20052;-68
2022/09/30 10:26:13;;;;;;;7.80;6.40;;;16.10;99.90;;;;;;5058891;28;20547;-67
2022/09/30 10:28:54;;;;;;;8.75;6.90;;;16.10;99.90;;;;;;5059364;28;20072;-66
2022/09/30 10:31:35;;;;;;;7.80;6.40;;;16.20;99.90;;;;;;5059358;28;20049;-66
2022/09/30 10:34:27;;;;;;;9.07;5.80;;;16.20;99.90;;;;;;5041990;28;20056;-63
2022/09/30 10:36:54;;;;;;;7.35;5.75;;;16.20;99.90;;;;;;5060620;28;20060;-65
2022/09/30 10:39:25;;;;;;;8.30;6.68;;;16.10;99.90;;;;;;5064248;28;20044;-63
2022/09/30 10:42:14;;;;;;;8.55;5.47;;;16.10;99.90;;;;;;5063874;28;20045;-63
2022/09/30 10:44:46;;;;;;;6.50;5.10;;;16.20;99.90;;;;;;5060064;28;20668;-64
2022/09/30 10:47:14;;;;;;;8.10;6.28;;;16.20;99.90;;;;;;5041606;28;20041;-63
2022/09/30 10:49:49;;;;;;;8.73;5.25;;;16.20;99.90;;;;;;5050118;28;20128;-65
2022/09/30 10:52:27;;;;;;;6.32;5.35;;;16.30;99.90;;;;;;5035952;28;20391;-65
2022/09/30 10:54:55;;;;;;;9.68;6.07;;;16.30;99.90;;;;;;5055169;28;20396;-64
2022/09/30 10:57:41;;;;;;;8.20;6.25;;;16.40;99.90;;;;;;5053048;28;20052;-64
2022/09/30 11:00:22;;;;;;;8.38;5.28;;;16.50;99.90;;;;;;5034713;28;20045;-64
2022/09/30 11:03:02;;;;;;;7.13;5.18;;;16.60;99.90;;;;;;5064094;28;20042;-66
2022/09/30 11:05:30;;;;;;;7.07;5.13;;;16.70;99.90;;;;;;5037316;28;20056;-67
2022/09/30 11:08:10;;;;;;;6.43;5.00;;;16.70;99.90;;;;;;5062477;28;20040;-64
2022/09/30 11:10:55;;;;;;;6.35;5.18;;;16.80;99.90;;;;;;5059110;28;20068;-64
2022/09/30 11:13:36;;;;;;;5.40;4.50;;;16.90;99.90;;;;;;5052929;28;20047;-65
2022/09/30 11:16:25;;;;;;;7.22;4.80;;;16.90;99.90;;;;;;5038444;28;20103;-61
2022/09/30 11:18:59;;;;;;;5.72;4.32;;;16.80;99.90;;;;;;5044872;28;20045;-65
2022/09/30 11:22:01;;;;;;;6.25;4.93;;;16.80;99.90;;;;;;5052348;28;20037;-63
2022/09/30 11:24:41;;;;;;;5.97;4.72;;;16.90;99.90;;;;;;5033877;28;20045;-66
2022/09/30 11:27:48;;;;;;;6.55;4.35;;;16.90;99.90;;;;;;5043931;28;20053;-64
2022/09/30 11:30:20;;;;;;;5.03;3.78;;;16.90;99.90;;;;;;5060091;28;20055;-63
2022/09/30 11:33:19;;;;;;;5.95;4.13;;;17.00;99.90;;;;;;5072195;28;20816;-66
2022/09/30 11:36:04;;;;;;;5.07;3.65;;;17.10;99.90;;;;;;5058991;28;20041;-62
2022/09/30 11:38:59;;;;;;;5.82;3.75;;;17.20;99.90;;;;;;5047413;28;20045;-61
2022/09/30 11:41:34;;;;;;;6.70;3.80;;;17.30;99.90;;;;;;5067085;28;20048;-64
2022/09/30 11:44:29;;;;;;;7.28;4.50;;;17.30;99.90;;;;;;5074980;28;20123;-63
2022/09/30 11:47:05;;;;;;;15.15;9.73;;;17.30;99.90;;;;;;5057888;28;20050;-62
2022/09/30 11:49:47;;;;;;;5.75;4.43;;;17.30;99.90;;;;;;5060564;28;20098;-63
2022/09/30 11:52:23;;;;;;;6.70;3.20;;;17.40;99.90;;;;;;5054664;28;20048;-63
2022/09/30 11:55:29;;;;;;;4.47;3.05;;;17.40;99.90;;;;;;5057158;28;20056;-64
2022/09/30 11:58:06;;;;;;;5.20;3.30;;;17.40;99.90;;;;;;5046797;28;20068;-63
2022/09/30 12:00:57;;;;;;;5.43;2.80;;;17.40;99.90;;;;;;5052520;28;20389;-63
2022/09/30 12:03:34;;;;;;;3.85;2.78;;;17.40;99.90;;;;;;5050963;28;20041;-65
2022/09/30 12:06:06;;;;;;;5.75;3.10;;;17.40;99.90;;;;;;5047729;28;20145;-63
2022/09/30 12:08:34;;;;;;;6.10;2.60;;;17.30;99.90;;;;;;5052995;28;20056;-64
2022/09/30 12:11:08;;;;;;;4.57;3.42;;;17.30;99.90;;;;;;5052048;28;20067;-63
2022/09/30 12:14:08;;;;;;;4.93;3.30;;;17.30;99.90;;;;;;5051655;28;20374;-64
2022/09/30 12:16:35;;;;;;;6.28;3.10;;;17.30;99.90;;;;;;5038416;28;20488;-64
2022/09/30 12:19:16;;;;;;;4.82;2.80;;;17.40;99.90;;;;;;5006151;28;20048;-64
2022/09/30 12:22:13;;;;;;;3.72;2.70;;;17.40;99.90;;;;;;5033183;28;20128;-63
2022/09/30 12:24:42;;;;;;;7.22;2.70;;;17.40;99.90;;;;;;5020569;28;20049;-64
2022/09/30 12:27:37;;;;;;;4.07;2.70;;;17.40;99.90;;;;;;5035269;28;20124;-65
2022/09/30 12:30:18;;;;;;;3.95;2.17;;;17.30;99.90;;;;;;5047447;28;20041;-62
2022/09/30 12:33:04;;;;;;;2.83;2.13;;;17.30;99.90;;;;;;5044241;28;20044;-63
2022/09/30 12:35:35;;;;;;;3.55;2.38;;;17.20;99.90;;;;;;5058672;28;20056;-63
2022/09/30 12:38:09;;;;;;;3.47;2.03;;;17.30;99.90;;;;;;5061154;28;20066;-63
2022/09/30 12:40:54;;;;;;;3.88;2.55;;;17.30;99.90;;;;;;5026772;28;20037;-63
2022/09/30 12:43:30;;;;;;;4.80;2.80;;;17.50;99.90;;;;;;5046372;28;20056;-63
2022/09/30 12:46:09;;;;;;;3.95;2.22;;;17.60;99.90;;;;;;5068934;28;20036;-63
2022/09/30 12:48:44;;;;;;;2.60;2.13;;;17.60;99.90;;;;;;5070170;28;20057;-63
2022/09/30 12:51:28;;;;;;;2.35;1.70;;;17.60;99.90;;;;;;5051424;28;20060;-63
2022/09/30 12:54:28;;;;;;;4.18;2.03;;;17.70;99.90;;;;;;5038443;28;20357;-63
2022/09/30 12:56:58;;;;;;;2.50;1.80;;;17.80;99.90;;;;;;5044056;28;20048;-62
2022/09/30 12:59:36;;;;;;;5.93;2.20;;;17.80;99.90;;;;;;5066180;28;20441;-62
2022/09/30 13:02:03;;;;;;;3.75;1.90;;;17.70;99.90;;;;;;5051497;28;20049;-63
2022/09/30 13:04:33;;;;;;;12.10;10.60;;;17.70;99.90;;;;;;5037046;28;20380;-64
2022/09/30 13:07:00;;;;;;;5.82;4.20;;;17.80;99.90;;;;;;5059204;28;20500;-63
2022/09/30 13:09:33;;;;;;;2.88;2.20;;;17.70;99.90;;;;;;5051202;28;20110;-64
2022/09/30 13:12:00;;;;;;;3.75;1.80;;;17.70;99.90;;;;;;5034433;28;20064;-64
2022/09/30 13:14:42;;;;;;;4.47;2.30;;;17.70;99.90;;;;;;5049225;28;20067;-66